sensor_id;sensor_type;location;lat;lon;timestamp;P1;durP1;ratioP1;P2;durP2;ratioP2
69951;SDS011;60406;48.408;13.392;2022-12-29T00:02:18;75.55;;;45.35;;
69951;SDS011;60406;48.408;13.392;2022-12-29T00:07:19;79.78;;;49.10;;
69951;SDS011;60406;48.408;13.392;2022-12-29T00:12:20;68.53;;;39.63;;
69951;SDS011;60406;48.408;13.392;2022-12-29T00:17:20;66.07;;;40.10;;
69951;SDS011;60406;48.408;13.392;2022-12-29T00:22:21;33.70;;;22.23;;
69951;SDS011;60406;48.408;13.392;2022-12-29T00:27:22;64.10;;;37.80;;
69951;SDS011;60406;48.408;13.392;2022-12-29T00:32:23;124.00;;;67.43;;
69951;SDS011;60406;48.408;13.392;2022-12-29T00:37:24;116.65;;;60.08;;
69951;SDS011;60406;48.408;13.392;2022-12-29T00:42:26;104.78;;;52.80;;
69951;SDS011;60406;48.408;13.392;2022-12-29T00:47:26;70.10;;;39.50;;
69951;SDS011;60406;48.408;13.392;2022-12-29T00:52:27;125.88;;;62.30;;
69951;SDS011;60406;48.408;13.392;2022-12-29T00:57:28;95.55;;;44.78;;
69951;SDS011;60406;48.408;13.392;2022-12-29T01:02:29;131.63;;;55.65;;
69951;SDS011;60406;48.408;13.392;2022-12-29T01:07:30;32.17;;;21.20;;
69951;SDS011;60406;48.408;13.392;2022-12-29T01:12:32;32.03;;;19.33;;
69951;SDS011;60406;48.408;13.392;2022-12-29T01:17:34;28.15;;;19.33;;
69951;SDS011;60406;48.408;13.392;2022-12-29T01:22:34;27.38;;;18.02;;
69951;SDS011;60406;48.408;13.392;2022-12-29T01:27:35;28.10;;;18.80;;
69951;SDS011;60406;48.408;13.392;2022-12-29T01:32:36;27.33;;;18.15;;
69951;SDS011;60406;48.408;13.392;2022-12-29T01:37:37;27.55;;;20.20;;
69951;SDS011;60406;48.408;13.392;2022-12-29T01:42:38;31.52;;;18.67;;
69951;SDS011;60406;48.408;13.392;2022-12-29T01:53:00;26.88;;;18.05;;
69951;SDS011;60406;48.408;13.392;2022-12-29T01:58:03;25.70;;;16.42;;
69951;SDS011;60406;48.408;13.392;2022-12-29T02:03:05;30.88;;;19.42;;
69951;SDS011;60406;48.408;13.392;2022-12-29T02:08:07;27.90;;;18.88;;
69951;SDS011;60406;48.408;13.392;2022-12-29T02:13:08;23.63;;;17.45;;
69951;SDS011;60406;48.408;13.392;2022-12-29T02:18:14;27.15;;;18.20;;
69951;SDS011;60406;48.408;13.392;2022-12-29T02:39:42;24.40;;;17.58;;
69951;SDS011;60406;48.408;13.392;2022-12-29T02:45:07;31.77;;;18.42;;
69951;SDS011;60406;48.408;13.392;2022-12-29T02:50:33;28.30;;;18.10;;
69951;SDS011;60406;48.408;13.392;2022-12-29T02:55:36;23.75;;;16.83;;
69951;SDS011;60406;48.408;13.392;2022-12-29T03:00:38;25.08;;;18.40;;
69951;SDS011;60406;48.408;13.392;2022-12-29T03:11:22;28.50;;;17.02;;
69951;SDS011;60406;48.408;13.392;2022-12-29T03:16:35;21.75;;;17.50;;
69951;SDS011;60406;48.408;13.392;2022-12-29T03:21:45;23.27;;;17.48;;
69951;SDS011;60406;48.408;13.392;2022-12-29T03:26:54;25.35;;;16.80;;
69951;SDS011;60406;48.408;13.392;2022-12-29T03:31:56;27.27;;;17.70;;
69951;SDS011;60406;48.408;13.392;2022-12-29T03:37:02;23.05;;;17.92;;
69951;SDS011;60406;48.408;13.392;2022-12-29T03:42:11;22.98;;;17.15;;
69951;SDS011;60406;48.408;13.392;2022-12-29T03:47:14;23.83;;;18.58;;
69951;SDS011;60406;48.408;13.392;2022-12-29T03:52:15;26.73;;;17.45;;
69951;SDS011;60406;48.408;13.392;2022-12-29T03:57:16;25.98;;;18.17;;
69951;SDS011;60406;48.408;13.392;2022-12-29T04:02:17;22.65;;;17.17;;
69951;SDS011;60406;48.408;13.392;2022-12-29T04:07:18;27.17;;;18.25;;
69951;SDS011;60406;48.408;13.392;2022-12-29T04:12:19;25.67;;;19.08;;
69951;SDS011;60406;48.408;13.392;2022-12-29T04:17:20;30.27;;;19.17;;
69951;SDS011;60406;48.408;13.392;2022-12-29T04:22:21;25.02;;;18.63;;
69951;SDS011;60406;48.408;13.392;2022-12-29T04:27:21;21.50;;;16.02;;
69951;SDS011;60406;48.408;13.392;2022-12-29T04:32:22;24.02;;;16.05;;
69951;SDS011;60406;48.408;13.392;2022-12-29T04:37:23;21.92;;;15.60;;
69951;SDS011;60406;48.408;13.392;2022-12-29T04:42:24;22.52;;;14.55;;
69951;SDS011;60406;48.408;13.392;2022-12-29T04:47:25;22.88;;;15.07;;
69951;SDS011;60406;48.408;13.392;2022-12-29T04:52:26;20.45;;;13.45;;
69951;SDS011;60406;48.408;13.392;2022-12-29T04:57:27;20.70;;;13.85;;
69951;SDS011;60406;48.408;13.392;2022-12-29T05:02:28;23.50;;;14.60;;
69951;SDS011;60406;48.408;13.392;2022-12-29T05:07:28;19.92;;;14.10;;
69951;SDS011;60406;48.408;13.392;2022-12-29T05:12:33;19.75;;;13.18;;
69951;SDS011;60406;48.408;13.392;2022-12-29T05:17:35;19.70;;;13.10;;
69951;SDS011;60406;48.408;13.392;2022-12-29T05:22:35;19.30;;;12.80;;
69951;SDS011;60406;48.408;13.392;2022-12-29T05:27:36;16.55;;;12.05;;
69951;SDS011;60406;48.408;13.392;2022-12-29T05:32:37;19.77;;;11.65;;
69951;SDS011;60406;48.408;13.392;2022-12-29T05:37:38;17.25;;;11.90;;
69951;SDS011;60406;48.408;13.392;2022-12-29T05:42:39;16.75;;;12.70;;
69951;SDS011;60406;48.408;13.392;2022-12-29T05:47:40;19.70;;;13.25;;
69951;SDS011;60406;48.408;13.392;2022-12-29T05:52:41;19.50;;;13.30;;
69951;SDS011;60406;48.408;13.392;2022-12-29T05:57:42;16.85;;;13.65;;
69951;SDS011;60406;48.408;13.392;2022-12-29T06:02:42;18.85;;;14.05;;
69951;SDS011;60406;48.408;13.392;2022-12-29T06:07:43;18.77;;;14.57;;
69951;SDS011;60406;48.408;13.392;2022-12-29T06:12:44;22.27;;;13.25;;
69951;SDS011;60406;48.408;13.392;2022-12-29T06:17:45;15.43;;;13.07;;
69951;SDS011;60406;48.408;13.392;2022-12-29T06:22:46;19.42;;;13.45;;
69951;SDS011;60406;48.408;13.392;2022-12-29T06:27:47;20.67;;;12.60;;
69951;SDS011;60406;48.408;13.392;2022-12-29T06:32:48;19.27;;;13.90;;
69951;SDS011;60406;48.408;13.392;2022-12-29T06:37:48;21.85;;;12.90;;
69951;SDS011;60406;48.408;13.392;2022-12-29T06:42:51;19.15;;;13.93;;
69951;SDS011;60406;48.408;13.392;2022-12-29T06:47:51;15.55;;;12.93;;
69951;SDS011;60406;48.408;13.392;2022-12-29T06:52:52;16.35;;;12.02;;
69951;SDS011;60406;48.408;13.392;2022-12-29T06:57:54;17.85;;;12.82;;
69951;SDS011;60406;48.408;13.392;2022-12-29T07:02:55;19.42;;;12.60;;
69951;SDS011;60406;48.408;13.392;2022-12-29T07:07:56;15.25;;;11.75;;
69951;SDS011;60406;48.408;13.392;2022-12-29T07:12:57;23.88;;;11.70;;
69951;SDS011;60406;48.408;13.392;2022-12-29T07:17:58;36.30;;;25.98;;
69951;SDS011;60406;48.408;13.392;2022-12-29T07:22:59;42.85;;;30.58;;
69951;SDS011;60406;48.408;13.392;2022-12-29T07:28:00;38.03;;;24.95;;
69951;SDS011;60406;48.408;13.392;2022-12-29T07:33:01;105.18;;;72.55;;
69951;SDS011;60406;48.408;13.392;2022-12-29T07:38:02;16.77;;;12.32;;
69951;SDS011;60406;48.408;13.392;2022-12-29T07:43:02;61.28;;;38.53;;
69951;SDS011;60406;48.408;13.392;2022-12-29T07:48:04;68.85;;;40.28;;
69951;SDS011;60406;48.408;13.392;2022-12-29T07:53:05;98.18;;;51.75;;
69951;SDS011;60406;48.408;13.392;2022-12-29T07:58:06;70.28;;;47.08;;
69951;SDS011;60406;48.408;13.392;2022-12-29T08:03:07;160.43;;;82.13;;
69951;SDS011;60406;48.408;13.392;2022-12-29T08:08:08;20.83;;;14.93;;
69951;SDS011;60406;48.408;13.392;2022-12-29T08:13:09;19.48;;;11.07;;
69951;SDS011;60406;48.408;13.392;2022-12-29T08:18:10;36.50;;;24.20;;
69951;SDS011;60406;48.408;13.392;2022-12-29T08:23:10;31.13;;;17.40;;
69951;SDS011;60406;48.408;13.392;2022-12-29T08:28:11;32.42;;;23.35;;
69951;SDS011;60406;48.408;13.392;2022-12-29T08:33:12;14.40;;;8.95;;
69951;SDS011;60406;48.408;13.392;2022-12-29T08:38:13;26.15;;;16.48;;
69951;SDS011;60406;48.408;13.392;2022-12-29T08:43:14;14.93;;;11.30;;
69951;SDS011;60406;48.408;13.392;2022-12-29T08:48:15;41.78;;;24.80;;
69951;SDS011;60406;48.408;13.392;2022-12-29T08:53:16;42.88;;;28.20;;
69951;SDS011;60406;48.408;13.392;2022-12-29T08:58:17;32.00;;;24.65;;
69951;SDS011;60406;48.408;13.392;2022-12-29T09:03:18;54.67;;;26.58;;
69951;SDS011;60406;48.408;13.392;2022-12-29T09:08:19;12.57;;;8.95;;
69951;SDS011;60406;48.408;13.392;2022-12-29T09:13:20;9.50;;;7.25;;
69951;SDS011;60406;48.408;13.392;2022-12-29T09:18:21;15.93;;;14.23;;
69951;SDS011;60406;48.408;13.392;2022-12-29T09:23:22;18.33;;;11.32;;
69951;SDS011;60406;48.408;13.392;2022-12-29T09:28:23;19.88;;;16.70;;
69951;SDS011;60406;48.408;13.392;2022-12-29T09:33:24;15.73;;;11.27;;
69951;SDS011;60406;48.408;13.392;2022-12-29T09:38:25;16.83;;;10.52;;
69951;SDS011;60406;48.408;13.392;2022-12-29T09:48:55;8.93;;;7.43;;
69951;SDS011;60406;48.408;13.392;2022-12-29T09:54:02;9.68;;;7.38;;
69951;SDS011;60406;48.408;13.392;2022-12-29T09:59:27;9.52;;;7.40;;
69951;SDS011;60406;48.408;13.392;2022-12-29T10:04:40;13.20;;;7.45;;
69951;SDS011;60406;48.408;13.392;2022-12-29T10:09:53;10.73;;;6.70;;
69951;SDS011;60406;48.408;13.392;2022-12-29T10:15:38;13.45;;;6.03;;
69951;SDS011;60406;48.408;13.392;2022-12-29T10:20:55;11.10;;;6.22;;
69951;SDS011;60406;48.408;13.392;2022-12-29T10:25:59;11.20;;;6.22;;
69951;SDS011;60406;48.408;13.392;2022-12-29T10:31:03;12.70;;;6.63;;
69951;SDS011;60406;48.408;13.392;2022-12-29T10:36:10;9.75;;;6.22;;
69951;SDS011;60406;48.408;13.392;2022-12-29T10:41:17;17.17;;;7.38;;
69951;SDS011;60406;48.408;13.392;2022-12-29T10:46:24;11.77;;;6.80;;
69951;SDS011;60406;48.408;13.392;2022-12-29T10:51:30;9.27;;;6.68;;
69951;SDS011;60406;48.408;13.392;2022-12-29T10:56:34;14.30;;;6.75;;
69951;SDS011;60406;48.408;13.392;2022-12-29T11:02:16;10.95;;;6.72;;
69951;SDS011;60406;48.408;13.392;2022-12-29T11:07:09;10.10;;;7.35;;
69951;SDS011;60406;48.408;13.392;2022-12-29T11:12:17;15.48;;;7.32;;
69951;SDS011;60406;48.408;13.392;2022-12-29T11:17:23;16.60;;;7.72;;
69951;SDS011;60406;48.408;13.392;2022-12-29T11:22:26;11.18;;;7.28;;
69951;SDS011;60406;48.408;13.392;2022-12-29T11:27:28;10.52;;;7.13;;
69951;SDS011;60406;48.408;13.392;2022-12-29T11:32:29;11.07;;;6.95;;
69951;SDS011;60406;48.408;13.392;2022-12-29T11:37:31;10.65;;;6.43;;
69951;SDS011;60406;48.408;13.392;2022-12-29T11:42:37;9.65;;;5.90;;
69951;SDS011;60406;48.408;13.392;2022-12-29T11:47:41;9.27;;;6.20;;
69951;SDS011;60406;48.408;13.392;2022-12-29T11:52:43;9.32;;;6.25;;
69951;SDS011;60406;48.408;13.392;2022-12-29T11:57:44;9.50;;;6.80;;
69951;SDS011;60406;48.408;13.392;2022-12-29T12:02:48;9.32;;;6.63;;
69951;SDS011;60406;48.408;13.392;2022-12-29T12:07:56;9.40;;;6.63;;
69951;SDS011;60406;48.408;13.392;2022-12-29T12:13:04;14.73;;;7.30;;
69951;SDS011;60406;48.408;13.392;2022-12-29T12:18:15;14.80;;;6.70;;
69951;SDS011;60406;48.408;13.392;2022-12-29T12:23:26;7.22;;;5.88;;
69951;SDS011;60406;48.408;13.392;2022-12-29T12:33:43;10.18;;;6.18;;
69951;SDS011;60406;48.408;13.392;2022-12-29T13:00:13;10.05;;;6.63;;
69951;SDS011;60406;48.408;13.392;2022-12-29T13:10:41;9.32;;;7.15;;
69951;SDS011;60406;48.408;13.392;2022-12-29T13:15:46;11.13;;;6.78;;
69951;SDS011;60406;48.408;13.392;2022-12-29T13:21:20;9.90;;;6.25;;
69951;SDS011;60406;48.408;13.392;2022-12-29T13:31:56;10.80;;;8.07;;
69951;SDS011;60406;48.408;13.392;2022-12-29T13:37:11;10.00;;;7.75;;
69951;SDS011;60406;48.408;13.392;2022-12-29T13:42:16;14.57;;;8.07;;
69951;SDS011;60406;48.408;13.392;2022-12-29T13:47:21;21.67;;;8.88;;
69951;SDS011;60406;48.408;13.392;2022-12-29T13:52:32;13.63;;;8.75;;
69951;SDS011;60406;48.408;13.392;2022-12-29T13:57:39;12.07;;;8.98;;
69951;SDS011;60406;48.408;13.392;2022-12-29T14:07:46;16.23;;;8.90;;
69951;SDS011;60406;48.408;13.392;2022-12-29T14:12:48;11.57;;;7.90;;
69951;SDS011;60406;48.408;13.392;2022-12-29T14:18:02;12.10;;;8.02;;
69951;SDS011;60406;48.408;13.392;2022-12-29T14:28:15;15.20;;;9.40;;
69951;SDS011;60406;48.408;13.392;2022-12-29T14:33:21;15.68;;;10.95;;
69951;SDS011;60406;48.408;13.392;2022-12-29T14:38:23;13.48;;;9.50;;
69951;SDS011;60406;48.408;13.392;2022-12-29T14:43:26;10.85;;;8.02;;
69951;SDS011;60406;48.408;13.392;2022-12-29T14:48:35;14.88;;;8.55;;
69951;SDS011;60406;48.408;13.392;2022-12-29T14:58:50;12.98;;;9.88;;
69951;SDS011;60406;48.408;13.392;2022-12-29T15:19:32;14.30;;;9.82;;
69951;SDS011;60406;48.408;13.392;2022-12-29T15:24:32;15.32;;;10.77;;
69951;SDS011;60406;48.408;13.392;2022-12-29T15:29:38;17.65;;;14.02;;
69951;SDS011;60406;48.408;13.392;2022-12-29T15:34:41;19.75;;;12.77;;
69951;SDS011;60406;48.408;13.392;2022-12-29T15:39:45;13.52;;;10.40;;
69951;SDS011;60406;48.408;13.392;2022-12-29T15:44:46;14.10;;;9.80;;
69951;SDS011;60406;48.408;13.392;2022-12-29T15:49:47;16.35;;;10.55;;
69951;SDS011;60406;48.408;13.392;2022-12-29T15:54:50;16.58;;;11.20;;
69951;SDS011;60406;48.408;13.392;2022-12-29T15:59:52;20.20;;;13.30;;
69951;SDS011;60406;48.408;13.392;2022-12-29T16:04:53;22.65;;;14.60;;
69951;SDS011;60406;48.408;13.392;2022-12-29T16:09:55;33.75;;;22.10;;
69951;SDS011;60406;48.408;13.392;2022-12-29T16:14:58;35.53;;;24.50;;
69951;SDS011;60406;48.408;13.392;2022-12-29T16:20:02;35.47;;;20.33;;
69951;SDS011;60406;48.408;13.392;2022-12-29T16:25:27;20.83;;;13.95;;
69951;SDS011;60406;48.408;13.392;2022-12-29T16:30:28;23.85;;;14.50;;
69951;SDS011;60406;48.408;13.392;2022-12-29T16:50:51;64.38;;;42.60;;
69951;SDS011;60406;48.408;13.392;2022-12-29T16:56:17;69.38;;;43.53;;
69951;SDS011;60406;48.408;13.392;2022-12-29T17:01:22;49.05;;;29.58;;
69951;SDS011;60406;48.408;13.392;2022-12-29T17:06:23;39.85;;;25.20;;
69951;SDS011;60406;48.408;13.392;2022-12-29T17:11:26;34.92;;;22.02;;
69951;SDS011;60406;48.408;13.392;2022-12-29T17:16:29;31.85;;;24.95;;
69951;SDS011;60406;48.408;13.392;2022-12-29T17:21:30;34.40;;;16.05;;
69951;SDS011;60406;48.408;13.392;2022-12-29T17:26:31;22.40;;;16.48;;
69951;SDS011;60406;48.408;13.392;2022-12-29T17:31:32;22.75;;;16.10;;
69951;SDS011;60406;48.408;13.392;2022-12-29T17:36:32;21.70;;;14.00;;
69951;SDS011;60406;48.408;13.392;2022-12-29T17:41:33;80.15;;;40.45;;
69951;SDS011;60406;48.408;13.392;2022-12-29T17:46:35;62.20;;;39.10;;
69951;SDS011;60406;48.408;13.392;2022-12-29T17:51:36;43.28;;;24.38;;
69951;SDS011;60406;48.408;13.392;2022-12-29T17:56:37;25.45;;;16.23;;
69951;SDS011;60406;48.408;13.392;2022-12-29T18:01:38;43.72;;;27.88;;
69951;SDS011;60406;48.408;13.392;2022-12-29T18:06:40;26.75;;;16.95;;
69951;SDS011;60406;48.408;13.392;2022-12-29T18:11:41;28.95;;;18.85;;
69951;SDS011;60406;48.408;13.392;2022-12-29T18:16:42;47.75;;;28.38;;
69951;SDS011;60406;48.408;13.392;2022-12-29T18:21:43;37.05;;;21.73;;
69951;SDS011;60406;48.408;13.392;2022-12-29T18:26:44;24.10;;;15.50;;
69951;SDS011;60406;48.408;13.392;2022-12-29T18:31:45;21.38;;;15.57;;
69951;SDS011;60406;48.408;13.392;2022-12-29T18:36:46;16.20;;;11.73;;
69951;SDS011;60406;48.408;13.392;2022-12-29T18:41:47;18.58;;;14.00;;
69951;SDS011;60406;48.408;13.392;2022-12-29T18:46:47;18.80;;;12.32;;
69951;SDS011;60406;48.408;13.392;2022-12-29T18:51:48;18.27;;;12.38;;
69951;SDS011;60406;48.408;13.392;2022-12-29T18:56:49;17.92;;;12.52;;
69951;SDS011;60406;48.408;13.392;2022-12-29T19:01:50;24.23;;;13.68;;
69951;SDS011;60406;48.408;13.392;2022-12-29T19:06:52;24.98;;;13.77;;
69951;SDS011;60406;48.408;13.392;2022-12-29T19:11:52;24.85;;;17.92;;
69951;SDS011;60406;48.408;13.392;2022-12-29T19:16:53;22.40;;;13.57;;
69951;SDS011;60406;48.408;13.392;2022-12-29T19:21:54;26.48;;;13.90;;
69951;SDS011;60406;48.408;13.392;2022-12-29T19:26:55;18.23;;;13.45;;
69951;SDS011;60406;48.408;13.392;2022-12-29T19:31:56;18.70;;;14.82;;
69951;SDS011;60406;48.408;13.392;2022-12-29T19:36:57;25.67;;;16.50;;
69951;SDS011;60406;48.408;13.392;2022-12-29T19:41:58;26.05;;;17.85;;
69951;SDS011;60406;48.408;13.392;2022-12-29T19:46:58;23.85;;;16.73;;
69951;SDS011;60406;48.408;13.392;2022-12-29T19:51:59;24.83;;;17.73;;
69951;SDS011;60406;48.408;13.392;2022-12-29T19:57:00;31.17;;;17.70;;
69951;SDS011;60406;48.408;13.392;2022-12-29T20:02:01;20.40;;;15.27;;
69951;SDS011;60406;48.408;13.392;2022-12-29T20:07:02;27.42;;;18.08;;
69951;SDS011;60406;48.408;13.392;2022-12-29T20:12:03;26.83;;;18.95;;
69951;SDS011;60406;48.408;13.392;2022-12-29T20:17:04;24.00;;;18.00;;
69951;SDS011;60406;48.408;13.392;2022-12-29T20:22:06;28.42;;;19.40;;
69951;SDS011;60406;48.408;13.392;2022-12-29T20:27:09;21.90;;;16.13;;
69951;SDS011;60406;48.408;13.392;2022-12-29T20:32:12;23.17;;;16.67;;
69951;SDS011;60406;48.408;13.392;2022-12-29T20:37:17;25.83;;;17.30;;
69951;SDS011;60406;48.408;13.392;2022-12-29T20:42:18;25.65;;;17.92;;
69951;SDS011;60406;48.408;13.392;2022-12-29T20:47:19;27.50;;;17.10;;
69951;SDS011;60406;48.408;13.392;2022-12-29T20:52:20;28.38;;;17.65;;
69951;SDS011;60406;48.408;13.392;2022-12-29T20:57:20;21.67;;;16.98;;
69951;SDS011;60406;48.408;13.392;2022-12-29T21:02:22;21.60;;;16.35;;
69951;SDS011;60406;48.408;13.392;2022-12-29T21:07:22;22.73;;;15.40;;
69951;SDS011;60406;48.408;13.392;2022-12-29T21:12:23;46.95;;;24.30;;
69951;SDS011;60406;48.408;13.392;2022-12-29T21:17:24;28.02;;;19.65;;
69951;SDS011;60406;48.408;13.392;2022-12-29T21:22:25;25.45;;;19.25;;
69951;SDS011;60406;48.408;13.392;2022-12-29T21:27:26;21.95;;;14.13;;
69951;SDS011;60406;48.408;13.392;2022-12-29T21:32:27;22.70;;;15.45;;
69951;SDS011;60406;48.408;13.392;2022-12-29T21:37:28;28.17;;;20.40;;
69951;SDS011;60406;48.408;13.392;2022-12-29T21:42:28;26.65;;;17.90;;
69951;SDS011;60406;48.408;13.392;2022-12-29T21:47:31;39.20;;;28.80;;
69951;SDS011;60406;48.408;13.392;2022-12-29T21:52:33;29.65;;;21.35;;
69951;SDS011;60406;48.408;13.392;2022-12-29T21:57:34;26.98;;;18.50;;
69951;SDS011;60406;48.408;13.392;2022-12-29T22:02:34;27.60;;;18.55;;
69951;SDS011;60406;48.408;13.392;2022-12-29T22:07:35;26.23;;;15.55;;
69951;SDS011;60406;48.408;13.392;2022-12-29T22:12:36;27.00;;;16.55;;
69951;SDS011;60406;48.408;13.392;2022-12-29T22:17:37;26.35;;;18.52;;
69951;SDS011;60406;48.408;13.392;2022-12-29T22:22:38;24.42;;;17.27;;
69951;SDS011;60406;48.408;13.392;2022-12-29T22:27:39;26.52;;;16.48;;
69951;SDS011;60406;48.408;13.392;2022-12-29T22:32:40;29.80;;;17.10;;
69951;SDS011;60406;48.408;13.392;2022-12-29T22:37:41;21.92;;;15.45;;
69951;SDS011;60406;48.408;13.392;2022-12-29T22:42:42;21.58;;;15.18;;
69951;SDS011;60406;48.408;13.392;2022-12-29T22:47:43;20.70;;;15.35;;
69951;SDS011;60406;48.408;13.392;2022-12-29T22:52:43;22.58;;;15.00;;
69951;SDS011;60406;48.408;13.392;2022-12-29T22:57:44;22.80;;;16.88;;
69951;SDS011;60406;48.408;13.392;2022-12-29T23:02:45;25.88;;;18.05;;
69951;SDS011;60406;48.408;13.392;2022-12-29T23:07:46;25.13;;;15.65;;
69951;SDS011;60406;48.408;13.392;2022-12-29T23:12:47;24.45;;;16.13;;
69951;SDS011;60406;48.408;13.392;2022-12-29T23:17:48;28.73;;;16.88;;
69951;SDS011;60406;48.408;13.392;2022-12-29T23:22:49;22.45;;;15.82;;
69951;SDS011;60406;48.408;13.392;2022-12-29T23:27:50;23.73;;;16.50;;
69951;SDS011;60406;48.408;13.392;2022-12-29T23:32:51;21.60;;;14.93;;
69951;SDS011;60406;48.408;13.392;2022-12-29T23:37:51;24.02;;;16.27;;
69951;SDS011;60406;48.408;13.392;2022-12-29T23:42:52;22.83;;;16.10;;
69951;SDS011;60406;48.408;13.392;2022-12-29T23:47:53;25.55;;;17.65;;
69951;SDS011;60406;48.408;13.392;2022-12-29T23:52:54;32.45;;;17.98;;
69951;SDS011;60406;48.408;13.392;2022-12-29T23:57:55;24.70;;;17.40;;
